sensor_id;sensor_type;location;lat;lon;timestamp;temperature;humidity
20526;DHT22;10421;49.142;9.232;2023-06-19T00:00:05;28.10;52.70
20526;DHT22;10421;49.142;9.232;2023-06-19T00:02:40;28.00;52.80
20526;DHT22;10421;49.142;9.232;2023-06-19T00:05:08;28.00;52.90
20526;DHT22;10421;49.142;9.232;2023-06-19T00:07:36;28.00;53.10
20526;DHT22;10421;49.142;9.232;2023-06-19T00:10:03;28.00;53.10
20526;DHT22;10421;49.142;9.232;2023-06-19T00:12:30;28.00;53.30
20526;DHT22;10421;49.142;9.232;2023-06-19T00:14:56;28.00;53.40
20526;DHT22;10421;49.142;9.232;2023-06-19T00:17:23;27.90;53.50
20526;DHT22;10421;49.142;9.232;2023-06-19T00:19:54;27.90;53.60
20526;DHT22;10421;49.142;9.232;2023-06-19T00:22:20;27.90;53.80
20526;DHT22;10421;49.142;9.232;2023-06-19T00:24:47;27.80;53.90
20526;DHT22;10421;49.142;9.232;2023-06-19T00:27:14;27.80;54.10
20526;DHT22;10421;49.142;9.232;2023-06-19T00:29:43;27.70;54.10
20526;DHT22;10421;49.142;9.232;2023-06-19T00:32:10;27.70;54.30
20526;DHT22;10421;49.142;9.232;2023-06-19T00:34:37;27.60;54.30
20526;DHT22;10421;49.142;9.232;2023-06-19T00:37:05;27.50;54.20
20526;DHT22;10421;49.142;9.232;2023-06-19T00:39:32;27.50;54.20
20526;DHT22;10421;49.142;9.232;2023-06-19T00:41:58;27.50;54.10
20526;DHT22;10421;49.142;9.232;2023-06-19T00:44:25;27.50;54.10
20526;DHT22;10421;49.142;9.232;2023-06-19T00:46:57;27.40;54.10
20526;DHT22;10421;49.142;9.232;2023-06-19T00:49:25;27.30;54.20
20526;DHT22;10421;49.142;9.232;2023-06-19T00:51:52;27.30;54.30
20526;DHT22;10421;49.142;9.232;2023-06-19T00:54:21;27.30;54.30
20526;DHT22;10421;49.142;9.232;2023-06-19T00:56:48;27.30;54.40
20526;DHT22;10421;49.142;9.232;2023-06-19T00:59:16;27.20;54.40
20526;DHT22;10421;49.142;9.232;2023-06-19T01:01:44;27.20;55.00
20526;DHT22;10421;49.142;9.232;2023-06-19T01:04:11;27.20;54.40
20526;DHT22;10421;49.142;9.232;2023-06-19T01:06:43;27.20;54.50
20526;DHT22;10421;49.142;9.232;2023-06-19T01:09:13;27.20;54.60
20526;DHT22;10421;49.142;9.232;2023-06-19T01:11:46;27.20;54.60
20526;DHT22;10421;49.142;9.232;2023-06-19T01:14:17;27.10;54.70
20526;DHT22;10421;49.142;9.232;2023-06-19T01:16:45;27.10;54.70
20526;DHT22;10421;49.142;9.232;2023-06-19T01:19:16;27.10;54.70
20526;DHT22;10421;49.142;9.232;2023-06-19T01:21:44;27.10;55.00
20526;DHT22;10421;49.142;9.232;2023-06-19T01:24:13;27.10;55.00
20526;DHT22;10421;49.142;9.232;2023-06-19T01:26:39;27.10;55.20
20526;DHT22;10421;49.142;9.232;2023-06-19T01:29:06;26.90;54.90
20526;DHT22;10421;49.142;9.232;2023-06-19T01:31:36;26.80;54.80
20526;DHT22;10421;49.142;9.232;2023-06-19T01:34:07;26.70;55.10
20526;DHT22;10421;49.142;9.232;2023-06-19T01:36:35;26.70;55.50
20526;DHT22;10421;49.142;9.232;2023-06-19T01:39:03;26.50;55.40
20526;DHT22;10421;49.142;9.232;2023-06-19T01:41:32;26.40;56.00
20526;DHT22;10421;49.142;9.232;2023-06-19T01:44:00;26.20;56.60
20526;DHT22;10421;49.142;9.232;2023-06-19T01:46:27;26.20;56.90
20526;DHT22;10421;49.142;9.232;2023-06-19T01:48:54;26.20;57.10
20526;DHT22;10421;49.142;9.232;2023-06-19T01:51:21;26.10;57.60
20526;DHT22;10421;49.142;9.232;2023-06-19T01:53:48;26.00;58.00
20526;DHT22;10421;49.142;9.232;2023-06-19T01:56:14;25.90;58.80
20526;DHT22;10421;49.142;9.232;2023-06-19T01:58:43;25.80;58.90
20526;DHT22;10421;49.142;9.232;2023-06-19T02:01:09;25.80;59.20
20526;DHT22;10421;49.142;9.232;2023-06-19T02:03:36;25.80;60.50
20526;DHT22;10421;49.142;9.232;2023-06-19T02:06:03;25.70;60.30
20526;DHT22;10421;49.142;9.232;2023-06-19T02:08:30;25.60;60.60
20526;DHT22;10421;49.142;9.232;2023-06-19T02:10:57;25.60;61.10
20526;DHT22;10421;49.142;9.232;2023-06-19T02:13:23;25.60;61.40
20526;DHT22;10421;49.142;9.232;2023-06-19T02:15:51;25.50;61.90
20526;DHT22;10421;49.142;9.232;2023-06-19T02:18:18;25.50;62.40
20526;DHT22;10421;49.142;9.232;2023-06-19T02:20:45;25.40;63.00
20526;DHT22;10421;49.142;9.232;2023-06-19T02:23:11;25.50;63.30
20526;DHT22;10421;49.142;9.232;2023-06-19T02:25:39;25.50;63.50
20526;DHT22;10421;49.142;9.232;2023-06-19T02:28:06;25.50;64.00
20526;DHT22;10421;49.142;9.232;2023-06-19T02:30:32;25.50;64.10
20526;DHT22;10421;49.142;9.232;2023-06-19T02:33:00;25.50;64.50
20526;DHT22;10421;49.142;9.232;2023-06-19T02:35:27;25.40;65.00
20526;DHT22;10421;49.142;9.232;2023-06-19T02:37:54;25.30;65.50
20526;DHT22;10421;49.142;9.232;2023-06-19T02:40:20;25.30;65.90
20526;DHT22;10421;49.142;9.232;2023-06-19T02:42:47;25.20;66.30
20526;DHT22;10421;49.142;9.232;2023-06-19T02:45:14;25.20;66.50
20526;DHT22;10421;49.142;9.232;2023-06-19T02:47:42;25.30;66.40
20526;DHT22;10421;49.142;9.232;2023-06-19T02:50:10;25.30;66.40
20526;DHT22;10421;49.142;9.232;2023-06-19T02:52:37;25.40;66.20
20526;DHT22;10421;49.142;9.232;2023-06-19T02:55:04;25.40;66.10
20526;DHT22;10421;49.142;9.232;2023-06-19T02:57:32;25.50;66.40
20526;DHT22;10421;49.142;9.232;2023-06-19T02:59:59;25.50;66.40
20526;DHT22;10421;49.142;9.232;2023-06-19T03:02:26;25.50;66.40
20526;DHT22;10421;49.142;9.232;2023-06-19T03:04:53;25.60;66.30
20526;DHT22;10421;49.142;9.232;2023-06-19T03:07:21;25.70;66.20
20526;DHT22;10421;49.142;9.232;2023-06-19T03:09:48;25.80;66.90
20526;DHT22;10421;49.142;9.232;2023-06-19T03:12:14;25.80;67.10
20526;DHT22;10421;49.142;9.232;2023-06-19T03:14:41;25.80;67.60
20526;DHT22;10421;49.142;9.232;2023-06-19T03:17:08;25.80;69.60
20526;DHT22;10421;49.142;9.232;2023-06-19T03:19:34;25.80;71.10
20526;DHT22;10421;49.142;9.232;2023-06-19T03:22:01;25.70;72.10
20526;DHT22;10421;49.142;9.232;2023-06-19T03:24:30;25.60;73.50
20526;DHT22;10421;49.142;9.232;2023-06-19T03:26:56;25.50;74.80
20526;DHT22;10421;49.142;9.232;2023-06-19T03:29:23;25.60;74.70
20526;DHT22;10421;49.142;9.232;2023-06-19T03:31:50;25.60;74.80
20526;DHT22;10421;49.142;9.232;2023-06-19T03:34:17;25.60;75.30
20526;DHT22;10421;49.142;9.232;2023-06-19T03:36:43;25.70;74.80
20526;DHT22;10421;49.142;9.232;2023-06-19T03:39:10;25.70;75.10
20526;DHT22;10421;49.142;9.232;2023-06-19T03:41:38;25.70;74.90
20526;DHT22;10421;49.142;9.232;2023-06-19T03:44:05;25.70;74.80
20526;DHT22;10421;49.142;9.232;2023-06-19T03:46:31;25.70;74.90
20526;DHT22;10421;49.142;9.232;2023-06-19T03:48:58;25.70;75.10
20526;DHT22;10421;49.142;9.232;2023-06-19T03:51:25;25.70;75.10
20526;DHT22;10421;49.142;9.232;2023-06-19T03:53:54;25.70;75.10
20526;DHT22;10421;49.142;9.232;2023-06-19T03:56:21;25.70;75.30
20526;DHT22;10421;49.142;9.232;2023-06-19T03:58:49;25.70;75.70
20526;DHT22;10421;49.142;9.232;2023-06-19T04:01:16;25.60;76.00
20526;DHT22;10421;49.142;9.232;2023-06-19T04:03:42;25.70;76.00
20526;DHT22;10421;49.142;9.232;2023-06-19T04:06:09;25.70;76.00
20526;DHT22;10421;49.142;9.232;2023-06-19T04:08:36;25.70;76.70
20526;DHT22;10421;49.142;9.232;2023-06-19T04:11:03;25.80;76.00
20526;DHT22;10421;49.142;9.232;2023-06-19T04:13:29;25.80;75.80
20526;DHT22;10421;49.142;9.232;2023-06-19T04:15:57;25.80;75.90
20526;DHT22;10421;49.142;9.232;2023-06-19T04:18:24;25.80;75.90
20526;DHT22;10421;49.142;9.232;2023-06-19T04:20:52;25.80;76.00
20526;DHT22;10421;49.142;9.232;2023-06-19T04:23:19;25.90;76.20
20526;DHT22;10421;49.142;9.232;2023-06-19T04:25:46;25.90;76.40
20526;DHT22;10421;49.142;9.232;2023-06-19T04:28:13;25.90;76.50
20526;DHT22;10421;49.142;9.232;2023-06-19T04:30:39;25.90;76.50
20526;DHT22;10421;49.142;9.232;2023-06-19T04:33:08;25.90;76.50
20526;DHT22;10421;49.142;9.232;2023-06-19T04:35:34;25.90;76.70
20526;DHT22;10421;49.142;9.232;2023-06-19T04:38:05;25.80;76.60
20526;DHT22;10421;49.142;9.232;2023-06-19T04:40:32;25.90;76.70
20526;DHT22;10421;49.142;9.232;2023-06-19T04:42:59;25.90;76.70
20526;DHT22;10421;49.142;9.232;2023-06-19T04:45:25;25.80;76.50
20526;DHT22;10421;49.142;9.232;2023-06-19T04:47:52;25.80;76.60
20526;DHT22;10421;49.142;9.232;2023-06-19T04:50:20;25.80;76.70
20526;DHT22;10421;49.142;9.232;2023-06-19T04:52:47;25.80;76.80
20526;DHT22;10421;49.142;9.232;2023-06-19T04:55:16;25.80;76.50
20526;DHT22;10421;49.142;9.232;2023-06-19T04:57:42;25.80;76.30
20526;DHT22;10421;49.142;9.232;2023-06-19T05:00:10;25.70;76.40
20526;DHT22;10421;49.142;9.232;2023-06-19T05:02:38;25.70;76.40
20526;DHT22;10421;49.142;9.232;2023-06-19T05:05:09;25.70;76.60
20526;DHT22;10421;49.142;9.232;2023-06-19T05:07:37;25.70;76.50
20526;DHT22;10421;49.142;9.232;2023-06-19T05:10:04;25.70;76.50
20526;DHT22;10421;49.142;9.232;2023-06-19T05:12:31;25.80;76.50
20526;DHT22;10421;49.142;9.232;2023-06-19T05:14:57;25.80;76.40
20526;DHT22;10421;49.142;9.232;2023-06-19T05:17:24;25.80;76.50
20526;DHT22;10421;49.142;9.232;2023-06-19T05:19:51;25.80;76.80
20526;DHT22;10421;49.142;9.232;2023-06-19T05:22:18;25.80;76.80
20526;DHT22;10421;49.142;9.232;2023-06-19T05:24:48;25.70;76.90
20526;DHT22;10421;49.142;9.232;2023-06-19T05:27:15;25.80;76.90
20526;DHT22;10421;49.142;9.232;2023-06-19T05:29:41;25.80;77.00
20526;DHT22;10421;49.142;9.232;2023-06-19T05:32:08;25.80;77.10
20526;DHT22;10421;49.142;9.232;2023-06-19T05:34:35;25.80;77.00
20526;DHT22;10421;49.142;9.232;2023-06-19T05:37:01;25.80;76.90
20526;DHT22;10421;49.142;9.232;2023-06-19T05:39:29;25.80;76.80
20526;DHT22;10421;49.142;9.232;2023-06-19T05:41:57;25.80;76.70
20526;DHT22;10421;49.142;9.232;2023-06-19T05:44:24;25.80;76.40
20526;DHT22;10421;49.142;9.232;2023-06-19T05:46:51;25.90;76.20
20526;DHT22;10421;49.142;9.232;2023-06-19T05:49:18;25.90;76.20
20526;DHT22;10421;49.142;9.232;2023-06-19T05:51:44;25.90;76.10
20526;DHT22;10421;49.142;9.232;2023-06-19T05:54:12;25.90;76.00
20526;DHT22;10421;49.142;9.232;2023-06-19T05:56:38;25.90;76.10
20526;DHT22;10421;49.142;9.232;2023-06-19T05:59:06;25.80;75.90
20526;DHT22;10421;49.142;9.232;2023-06-19T06:01:33;25.80;75.90
20526;DHT22;10421;49.142;9.232;2023-06-19T06:04:00;25.90;75.90
20526;DHT22;10421;49.142;9.232;2023-06-19T06:06:28;25.90;75.80
20526;DHT22;10421;49.142;9.232;2023-06-19T06:08:55;26.00;75.70
20526;DHT22;10421;49.142;9.232;2023-06-19T06:11:22;26.00;75.50
20526;DHT22;10421;49.142;9.232;2023-06-19T06:13:49;26.00;75.40
20526;DHT22;10421;49.142;9.232;2023-06-19T06:16:17;26.10;75.40
20526;DHT22;10421;49.142;9.232;2023-06-19T06:18:44;26.20;75.30
20526;DHT22;10421;49.142;9.232;2023-06-19T06:21:11;26.20;75.20
20526;DHT22;10421;49.142;9.232;2023-06-19T06:23:40;26.30;75.00
20526;DHT22;10421;49.142;9.232;2023-06-19T06:26:06;26.30;74.80
20526;DHT22;10421;49.142;9.232;2023-06-19T06:28:33;26.40;74.70
20526;DHT22;10421;49.142;9.232;2023-06-19T06:31:00;26.50;74.30
20526;DHT22;10421;49.142;9.232;2023-06-19T06:33:29;26.60;74.80
20526;DHT22;10421;49.142;9.232;2023-06-19T06:35:57;26.70;73.50
20526;DHT22;10421;49.142;9.232;2023-06-19T06:38:24;26.80;73.00
20526;DHT22;10421;49.142;9.232;2023-06-19T06:40:50;26.90;71.90
20526;DHT22;10421;49.142;9.232;2023-06-19T06:43:17;27.00;71.90
20526;DHT22;10421;49.142;9.232;2023-06-19T06:45:44;27.10;71.70
20526;DHT22;10421;49.142;9.232;2023-06-19T06:48:11;27.20;71.50
20526;DHT22;10421;49.142;9.232;2023-06-19T06:50:39;27.30;71.10
20526;DHT22;10421;49.142;9.232;2023-06-19T06:53:06;27.40;70.50
20526;DHT22;10421;49.142;9.232;2023-06-19T06:55:33;27.50;70.50
20526;DHT22;10421;49.142;9.232;2023-06-19T06:58:00;27.60;70.40
20526;DHT22;10421;49.142;9.232;2023-06-19T07:00:27;27.70;70.20
20526;DHT22;10421;49.142;9.232;2023-06-19T07:02:54;27.70;70.00
20526;DHT22;10421;49.142;9.232;2023-06-19T07:05:21;27.80;70.10
20526;DHT22;10421;49.142;9.232;2023-06-19T07:07:49;27.80;70.10
20526;DHT22;10421;49.142;9.232;2023-06-19T07:10:16;27.90;70.00
20526;DHT22;10421;49.142;9.232;2023-06-19T07:12:46;28.00;69.70
20526;DHT22;10421;49.142;9.232;2023-06-19T07:15:13;28.00;69.30
20526;DHT22;10421;49.142;9.232;2023-06-19T07:17:40;28.00;69.10
20526;DHT22;10421;49.142;9.232;2023-06-19T07:20:08;28.10;69.10
20526;DHT22;10421;49.142;9.232;2023-06-19T07:22:34;28.10;68.90
20526;DHT22;10421;49.142;9.232;2023-06-19T07:25:04;28.20;68.80
20526;DHT22;10421;49.142;9.232;2023-06-19T07:27:31;28.30;68.50
20526;DHT22;10421;49.142;9.232;2023-06-19T07:29:58;28.30;67.30
20526;DHT22;10421;49.142;9.232;2023-06-19T07:32:24;28.20;66.80
20526;DHT22;10421;49.142;9.232;2023-06-19T07:34:53;28.20;67.50
20526;DHT22;10421;49.142;9.232;2023-06-19T07:37:20;28.10;67.50
20526;DHT22;10421;49.142;9.232;2023-06-19T07:39:48;27.90;68.20
20526;DHT22;10421;49.142;9.232;2023-06-19T07:42:16;27.70;68.60
20526;DHT22;10421;49.142;9.232;2023-06-19T07:44:44;27.60;68.40
20526;DHT22;10421;49.142;9.232;2023-06-19T07:47:12;27.60;68.90
20526;DHT22;10421;49.142;9.232;2023-06-19T07:49:39;27.60;68.60
20526;DHT22;10421;49.142;9.232;2023-06-19T07:52:07;27.50;67.60
20526;DHT22;10421;49.142;9.232;2023-06-19T07:54:34;27.40;68.10
20526;DHT22;10421;49.142;9.232;2023-06-19T07:57:01;27.40;68.40
20526;DHT22;10421;49.142;9.232;2023-06-19T07:59:30;27.30;68.60
20526;DHT22;10421;49.142;9.232;2023-06-19T08:01:56;27.40;69.00
20526;DHT22;10421;49.142;9.232;2023-06-19T08:04:23;27.30;68.80
20526;DHT22;10421;49.142;9.232;2023-06-19T08:06:50;27.30;69.00
20526;DHT22;10421;49.142;9.232;2023-06-19T08:09:16;27.30;70.30
20526;DHT22;10421;49.142;9.232;2023-06-19T08:11:43;27.30;69.90
20526;DHT22;10421;49.142;9.232;2023-06-19T08:14:10;27.30;70.00
20526;DHT22;10421;49.142;9.232;2023-06-19T08:16:38;27.20;70.10
20526;DHT22;10421;49.142;9.232;2023-06-19T08:19:04;27.30;70.10
20526;DHT22;10421;49.142;9.232;2023-06-19T08:21:31;27.30;70.00
20526;DHT22;10421;49.142;9.232;2023-06-19T08:23:58;27.40;70.80
20526;DHT22;10421;49.142;9.232;2023-06-19T08:26:25;27.40;69.70
20526;DHT22;10421;49.142;9.232;2023-06-19T08:28:51;27.40;70.00
20526;DHT22;10421;49.142;9.232;2023-06-19T08:31:18;27.50;70.20
20526;DHT22;10421;49.142;9.232;2023-06-19T08:33:47;27.50;70.20
20526;DHT22;10421;49.142;9.232;2023-06-19T08:36:15;27.60;70.40
20526;DHT22;10421;49.142;9.232;2023-06-19T08:38:41;27.70;70.30
20526;DHT22;10421;49.142;9.232;2023-06-19T08:41:08;27.80;70.20
20526;DHT22;10421;49.142;9.232;2023-06-19T08:43:35;27.90;70.00
20526;DHT22;10421;49.142;9.232;2023-06-19T08:46:09;28.00;69.90
20526;DHT22;10421;49.142;9.232;2023-06-19T08:48:36;28.10;69.70
20526;DHT22;10421;49.142;9.232;2023-06-19T08:51:04;28.10;69.20
20526;DHT22;10421;49.142;9.232;2023-06-19T08:53:33;28.10;69.10
20526;DHT22;10421;49.142;9.232;2023-06-19T08:56:00;28.10;69.20
20526;DHT22;10421;49.142;9.232;2023-06-19T08:58:27;28.20;69.70
20526;DHT22;10421;49.142;9.232;2023-06-19T09:00:54;28.30;69.20
20526;DHT22;10421;49.142;9.232;2023-06-19T09:03:21;28.20;68.80
20526;DHT22;10421;49.142;9.232;2023-06-19T09:05:48;28.30;69.00
20526;DHT22;10421;49.142;9.232;2023-06-19T09:08:18;28.30;68.70
20526;DHT22;10421;49.142;9.232;2023-06-19T09:10:55;28.30;68.40
20526;DHT22;10421;49.142;9.232;2023-06-19T09:13:21;28.50;69.00
20526;DHT22;10421;49.142;9.232;2023-06-19T09:15:57;28.50;68.50
20526;DHT22;10421;49.142;9.232;2023-06-19T09:18:25;28.70;68.50
20526;DHT22;10421;49.142;9.232;2023-06-19T09:20:52;28.90;68.10
20526;DHT22;10421;49.142;9.232;2023-06-19T09:23:21;29.10;68.10
20526;DHT22;10421;49.142;9.232;2023-06-19T09:25:49;29.20;67.60
20526;DHT22;10421;49.142;9.232;2023-06-19T09:28:18;29.40;66.30
20526;DHT22;10421;49.142;9.232;2023-06-19T09:30:55;29.50;66.20
20526;DHT22;10421;49.142;9.232;2023-06-19T09:33:22;29.50;67.10
20526;DHT22;10421;49.142;9.232;2023-06-19T09:35:49;29.60;66.90
20526;DHT22;10421;49.142;9.232;2023-06-19T09:38:17;29.60;65.20
20526;DHT22;10421;49.142;9.232;2023-06-19T09:40:46;29.60;65.20
20526;DHT22;10421;49.142;9.232;2023-06-19T09:43:15;29.60;64.60
20526;DHT22;10421;49.142;9.232;2023-06-19T09:45:44;29.80;64.00
20526;DHT22;10421;49.142;9.232;2023-06-19T09:48:14;29.90;64.40
20526;DHT22;10421;49.142;9.232;2023-06-19T09:50:46;30.10;64.30
20526;DHT22;10421;49.142;9.232;2023-06-19T09:53:15;30.10;64.00
20526;DHT22;10421;49.142;9.232;2023-06-19T09:55:42;30.20;63.60
20526;DHT22;10421;49.142;9.232;2023-06-19T09:58:10;30.40;63.40
20526;DHT22;10421;49.142;9.232;2023-06-19T10:00:37;30.50;63.40
20526;DHT22;10421;49.142;9.232;2023-06-19T10:03:04;30.60;62.90
20526;DHT22;10421;49.142;9.232;2023-06-19T10:05:37;30.60;63.20
20526;DHT22;10421;49.142;9.232;2023-06-19T10:08:04;30.60;64.40
20526;DHT22;10421;49.142;9.232;2023-06-19T10:10:31;30.70;63.10
20526;DHT22;10421;49.142;9.232;2023-06-19T10:13:00;30.80;63.20
20526;DHT22;10421;49.142;9.232;2023-06-19T10:15:40;30.80;63.60
20526;DHT22;10421;49.142;9.232;2023-06-19T10:18:08;30.80;63.40
20526;DHT22;10421;49.142;9.232;2023-06-19T10:20:40;30.80;63.40
20526;DHT22;10421;49.142;9.232;2023-06-19T10:23:08;30.80;63.60
20526;DHT22;10421;49.142;9.232;2023-06-19T10:25:35;30.60;64.10
20526;DHT22;10421;49.142;9.232;2023-06-19T10:28:03;30.60;64.30
20526;DHT22;10421;49.142;9.232;2023-06-19T10:30:32;30.60;64.60
20526;DHT22;10421;49.142;9.232;2023-06-19T10:33:01;30.60;64.80
20526;DHT22;10421;49.142;9.232;2023-06-19T10:35:36;30.60;65.00
20526;DHT22;10421;49.142;9.232;2023-06-19T10:38:04;30.70;64.60
20526;DHT22;10421;49.142;9.232;2023-06-19T10:40:30;30.80;64.10
20526;DHT22;10421;49.142;9.232;2023-06-19T10:42:57;31.00;63.70
20526;DHT22;10421;49.142;9.232;2023-06-19T10:45:24;31.10;63.00
20526;DHT22;10421;49.142;9.232;2023-06-19T10:47:54;31.30;62.50
20526;DHT22;10421;49.142;9.232;2023-06-19T10:50:23;31.30;62.10
20526;DHT22;10421;49.142;9.232;2023-06-19T10:52:52;31.10;62.50
20526;DHT22;10421;49.142;9.232;2023-06-19T10:55:20;31.20;63.30
20526;DHT22;10421;49.142;9.232;2023-06-19T10:57:48;31.30;63.20
20526;DHT22;10421;49.142;9.232;2023-06-19T11:00:24;31.30;62.60
20526;DHT22;10421;49.142;9.232;2023-06-19T11:02:50;31.40;62.20
20526;DHT22;10421;49.142;9.232;2023-06-19T11:05:19;31.50;62.20
20526;DHT22;10421;49.142;9.232;2023-06-19T11:07:52;31.70;62.10
20526;DHT22;10421;49.142;9.232;2023-06-19T11:10:20;31.70;61.60
20526;DHT22;10421;49.142;9.232;2023-06-19T11:12:48;31.80;61.60
20526;DHT22;10421;49.142;9.232;2023-06-19T11:15:14;31.90;61.40
20526;DHT22;10421;49.142;9.232;2023-06-19T11:17:41;32.00;61.30
20526;DHT22;10421;49.142;9.232;2023-06-19T11:20:10;32.10;60.60
20526;DHT22;10421;49.142;9.232;2023-06-19T11:22:38;32.10;60.50
20526;DHT22;10421;49.142;9.232;2023-06-19T11:25:09;32.20;59.80
20526;DHT22;10421;49.142;9.232;2023-06-19T11:27:37;32.20;59.50
20526;DHT22;10421;49.142;9.232;2023-06-19T11:30:06;32.30;59.40
20526;DHT22;10421;49.142;9.232;2023-06-19T11:32:34;32.40;59.50
20526;DHT22;10421;49.142;9.232;2023-06-19T11:35:07;32.40;58.80
20526;DHT22;10421;49.142;9.232;2023-06-19T11:37:34;32.60;58.80
20526;DHT22;10421;49.142;9.232;2023-06-19T11:40:01;32.60;58.30
20526;DHT22;10421;49.142;9.232;2023-06-19T11:42:46;32.60;57.90
20526;DHT22;10421;49.142;9.232;2023-06-19T11:45:13;32.60;57.80
20526;DHT22;10421;49.142;9.232;2023-06-19T11:47:40;32.70;57.50
20526;DHT22;10421;49.142;9.232;2023-06-19T11:50:07;32.80;57.20
20526;DHT22;10421;49.142;9.232;2023-06-19T11:52:34;32.70;57.10
20526;DHT22;10421;49.142;9.232;2023-06-19T11:55:01;32.70;57.10
20526;DHT22;10421;49.142;9.232;2023-06-19T11:57:28;32.60;56.60
20526;DHT22;10421;49.142;9.232;2023-06-19T11:59:56;32.60;56.50
20526;DHT22;10421;49.142;9.232;2023-06-19T12:02:23;32.50;56.30
20526;DHT22;10421;49.142;9.232;2023-06-19T12:04:49;32.50;56.40
20526;DHT22;10421;49.142;9.232;2023-06-19T12:07:16;32.40;56.90
20526;DHT22;10421;49.142;9.232;2023-06-19T12:09:43;32.20;57.40
20526;DHT22;10421;49.142;9.232;2023-06-19T12:12:10;32.10;58.10
20526;DHT22;10421;49.142;9.232;2023-06-19T12:14:37;32.20;58.40
20526;DHT22;10421;49.142;9.232;2023-06-19T12:17:06;32.20;58.10
20526;DHT22;10421;49.142;9.232;2023-06-19T12:19:34;32.40;58.00
20526;DHT22;10421;49.142;9.232;2023-06-19T12:22:01;32.50;58.00
20526;DHT22;10421;49.142;9.232;2023-06-19T12:24:28;32.60;57.50
20526;DHT22;10421;49.142;9.232;2023-06-19T12:26:55;32.80;57.40
20526;DHT22;10421;49.142;9.232;2023-06-19T12:29:21;33.00;57.10
20526;DHT22;10421;49.142;9.232;2023-06-19T12:31:48;33.10;56.80
20526;DHT22;10421;49.142;9.232;2023-06-19T12:34:16;33.10;56.60
20526;DHT22;10421;49.142;9.232;2023-06-19T12:36:44;33.20;56.80
20526;DHT22;10421;49.142;9.232;2023-06-19T12:39:10;33.30;56.30
20526;DHT22;10421;49.142;9.232;2023-06-19T12:41:41;33.40;56.10
20526;DHT22;10421;49.142;9.232;2023-06-19T12:44:08;33.50;55.90
20526;DHT22;10421;49.142;9.232;2023-06-19T12:46:35;33.60;55.70
20526;DHT22;10421;49.142;9.232;2023-06-19T12:49:02;33.70;55.50
20526;DHT22;10421;49.142;9.232;2023-06-19T12:51:30;33.80;55.50
20526;DHT22;10421;49.142;9.232;2023-06-19T12:53:57;33.80;55.50
20526;DHT22;10421;49.142;9.232;2023-06-19T12:56:23;33.90;54.90
20526;DHT22;10421;49.142;9.232;2023-06-19T12:58:50;33.90;54.60
20526;DHT22;10421;49.142;9.232;2023-06-19T13:01:17;33.80;53.90
20526;DHT22;10421;49.142;9.232;2023-06-19T13:03:43;33.80;54.00
20526;DHT22;10421;49.142;9.232;2023-06-19T13:06:10;33.70;54.10
20526;DHT22;10421;49.142;9.232;2023-06-19T13:08:38;33.70;54.40
20526;DHT22;10421;49.142;9.232;2023-06-19T13:11:05;33.60;54.80
20526;DHT22;10421;49.142;9.232;2023-06-19T13:13:31;33.60;54.80
20526;DHT22;10421;49.142;9.232;2023-06-19T13:15:58;33.60;54.20
20526;DHT22;10421;49.142;9.232;2023-06-19T13:18:25;33.60;54.40
20526;DHT22;10421;49.142;9.232;2023-06-19T13:20:51;33.60;54.10
20526;DHT22;10421;49.142;9.232;2023-06-19T13:23:18;33.70;53.60
20526;DHT22;10421;49.142;9.232;2023-06-19T13:25:46;33.70;53.40
20526;DHT22;10421;49.142;9.232;2023-06-19T13:28:13;33.80;53.30
20526;DHT22;10421;49.142;9.232;2023-06-19T13:30:40;33.80;53.20
20526;DHT22;10421;49.142;9.232;2023-06-19T13:33:06;33.90;53.00
20526;DHT22;10421;49.142;9.232;2023-06-19T13:35:33;34.00;52.90
20526;DHT22;10421;49.142;9.232;2023-06-19T13:38:00;34.00;53.00
20526;DHT22;10421;49.142;9.232;2023-06-19T13:40:27;34.10;53.10
20526;DHT22;10421;49.142;9.232;2023-06-19T13:42:55;34.20;53.10
20526;DHT22;10421;49.142;9.232;2023-06-19T13:45:22;34.30;53.00
20526;DHT22;10421;49.142;9.232;2023-06-19T13:47:49;34.40;53.10
20526;DHT22;10421;49.142;9.232;2023-06-19T13:50:16;34.50;53.10
20526;DHT22;10421;49.142;9.232;2023-06-19T13:52:44;34.60;53.00
20526;DHT22;10421;49.142;9.232;2023-06-19T13:55:12;34.50;52.60
20526;DHT22;10421;49.142;9.232;2023-06-19T13:57:39;34.40;52.70
20526;DHT22;10421;49.142;9.232;2023-06-19T14:00:12;34.40;53.10
20526;DHT22;10421;49.142;9.232;2023-06-19T14:02:39;34.40;53.30
20526;DHT22;10421;49.142;9.232;2023-06-19T14:05:07;34.40;53.30
20526;DHT22;10421;49.142;9.232;2023-06-19T14:07:35;34.40;53.40
20526;DHT22;10421;49.142;9.232;2023-06-19T14:10:03;34.40;53.40
20526;DHT22;10421;49.142;9.232;2023-06-19T14:12:30;34.50;53.20
20526;DHT22;10421;49.142;9.232;2023-06-19T14:14:57;34.60;52.80
20526;DHT22;10421;49.142;9.232;2023-06-19T14:17:25;34.60;52.50
20526;DHT22;10421;49.142;9.232;2023-06-19T14:19:53;34.60;52.50
20526;DHT22;10421;49.142;9.232;2023-06-19T14:22:21;34.50;52.50
20526;DHT22;10421;49.142;9.232;2023-06-19T14:24:47;34.40;52.60
20526;DHT22;10421;49.142;9.232;2023-06-19T14:27:14;34.40;52.60
20526;DHT22;10421;49.142;9.232;2023-06-19T14:29:41;34.40;52.80
20526;DHT22;10421;49.142;9.232;2023-06-19T14:32:08;34.10;52.90
20526;DHT22;10421;49.142;9.232;2023-06-19T14:34:36;34.00;53.20
20526;DHT22;10421;49.142;9.232;2023-06-19T14:37:03;34.00;53.30
20526;DHT22;10421;49.142;9.232;2023-06-19T14:39:29;33.90;53.30
20526;DHT22;10421;49.142;9.232;2023-06-19T14:41:56;34.00;53.30
20526;DHT22;10421;49.142;9.232;2023-06-19T14:44:23;33.90;53.20
20526;DHT22;10421;49.142;9.232;2023-06-19T14:46:50;33.80;53.30
20526;DHT22;10421;49.142;9.232;2023-06-19T14:49:17;33.80;53.40
20526;DHT22;10421;49.142;9.232;2023-06-19T14:51:45;33.90;53.60
20526;DHT22;10421;49.142;9.232;2023-06-19T14:54:11;33.90;53.60
20526;DHT22;10421;49.142;9.232;2023-06-19T14:56:38;34.00;53.70
20526;DHT22;10421;49.142;9.232;2023-06-19T14:59:05;34.10;53.50
20526;DHT22;10421;49.142;9.232;2023-06-19T15:01:32;34.10;53.30
20526;DHT22;10421;49.142;9.232;2023-06-19T15:03:59;34.10;53.10
20526;DHT22;10421;49.142;9.232;2023-06-19T15:06:25;34.20;53.00
20526;DHT22;10421;49.142;9.232;2023-06-19T15:08:53;34.20;53.20
20526;DHT22;10421;49.142;9.232;2023-06-19T15:11:20;34.20;53.00
20526;DHT22;10421;49.142;9.232;2023-06-19T15:13:47;34.10;52.80
20526;DHT22;10421;49.142;9.232;2023-06-19T15:16:14;34.20;52.90
20526;DHT22;10421;49.142;9.232;2023-06-19T15:18:41;34.20;52.80
20526;DHT22;10421;49.142;9.232;2023-06-19T15:21:07;34.30;52.90
20526;DHT22;10421;49.142;9.232;2023-06-19T15:23:34;34.40;53.50
20526;DHT22;10421;49.142;9.232;2023-06-19T15:26:04;34.40;52.60
20526;DHT22;10421;49.142;9.232;2023-06-19T15:28:32;34.40;52.50
20526;DHT22;10421;49.142;9.232;2023-06-19T15:31:01;34.40;52.50